sensor_id;sensor_type;location;lat;lon;timestamp;P1;durP1;ratioP1;P2;durP2;ratioP2
9094;SDS011;4583;49.796;9.902;2022-12-11T00:03:32;20.97;;;11.40;;
9094;SDS011;4583;49.796;9.902;2022-12-11T00:13:34;18.03;;;10.93;;
9094;SDS011;4583;49.796;9.902;2022-12-11T00:23:36;20.07;;;10.87;;
9094;SDS011;4583;49.796;9.902;2022-12-11T00:33:38;17.13;;;10.13;;
9094;SDS011;4583;49.796;9.902;2022-12-11T00:43:40;16.77;;;10.00;;
9094;SDS011;4583;49.796;9.902;2022-12-11T00:53:42;18.30;;;10.27;;
9094;SDS011;4583;49.796;9.902;2022-12-11T01:03:44;15.97;;;9.60;;
9094;SDS011;4583;49.796;9.902;2022-12-11T01:13:46;14.03;;;8.83;;
9094;SDS011;4583;49.796;9.902;2022-12-11T01:23:48;11.90;;;7.63;;
9094;SDS011;4583;49.796;9.902;2022-12-11T01:33:52;15.33;;;9.47;;
9094;SDS011;4583;49.796;9.902;2022-12-11T01:43:59;17.00;;;10.63;;
9094;SDS011;4583;49.796;9.902;2022-12-11T01:54:08;15.17;;;10.27;;
9094;SDS011;4583;49.796;9.902;2022-12-11T02:04:12;17.63;;;10.77;;
9094;SDS011;4583;49.796;9.902;2022-12-11T02:14:19;15.67;;;9.30;;
9094;SDS011;4583;49.796;9.902;2022-12-11T02:35:19;22.80;;;11.30;;
9094;SDS011;4583;49.796;9.902;2022-12-11T02:45:31;18.93;;;11.33;;
9094;SDS011;4583;49.796;9.902;2022-12-11T02:55:34;19.07;;;11.53;;
9094;SDS011;4583;49.796;9.902;2022-12-11T03:05:38;21.90;;;13.03;;
9094;SDS011;4583;49.796;9.902;2022-12-11T03:31:37;28.13;;;14.27;;
9094;SDS011;4583;49.796;9.902;2022-12-11T03:41:45;25.50;;;13.10;;
9094;SDS011;4583;49.796;9.902;2022-12-11T03:51:49;24.27;;;14.03;;
9094;SDS011;4583;49.796;9.902;2022-12-11T04:01:53;26.30;;;14.63;;
9094;SDS011;4583;49.796;9.902;2022-12-11T04:11:55;23.70;;;14.13;;
9094;SDS011;4583;49.796;9.902;2022-12-11T04:21:56;26.60;;;13.83;;
9094;SDS011;4583;49.796;9.902;2022-12-11T04:32:17;23.17;;;13.63;;
9094;SDS011;4583;49.796;9.902;2022-12-11T04:42:19;24.73;;;12.50;;
9094;SDS011;4583;49.796;9.902;2022-12-11T04:52:21;20.63;;;12.90;;
9094;SDS011;4583;49.796;9.902;2022-12-11T05:02:23;25.83;;;13.27;;
9094;SDS011;4583;49.796;9.902;2022-12-11T05:12:24;19.83;;;11.70;;
9094;SDS011;4583;49.796;9.902;2022-12-11T05:22:26;20.07;;;11.80;;
9094;SDS011;4583;49.796;9.902;2022-12-11T05:32:29;21.07;;;11.17;;
9094;SDS011;4583;49.796;9.902;2022-12-11T05:42:31;23.50;;;12.17;;
9094;SDS011;4583;49.796;9.902;2022-12-11T05:52:33;21.93;;;12.60;;
9094;SDS011;4583;49.796;9.902;2022-12-11T06:02:35;21.07;;;11.77;;
9094;SDS011;4583;49.796;9.902;2022-12-11T06:12:37;22.13;;;12.67;;
9094;SDS011;4583;49.796;9.902;2022-12-11T06:22:40;21.33;;;12.23;;
9094;SDS011;4583;49.796;9.902;2022-12-11T06:32:43;22.50;;;12.03;;
9094;SDS011;4583;49.796;9.902;2022-12-11T06:42:44;21.20;;;12.63;;
9094;SDS011;4583;49.796;9.902;2022-12-11T06:52:46;21.10;;;12.30;;
9094;SDS011;4583;49.796;9.902;2022-12-11T07:02:49;20.93;;;12.57;;
9094;SDS011;4583;49.796;9.902;2022-12-11T07:12:51;22.93;;;12.90;;
9094;SDS011;4583;49.796;9.902;2022-12-11T07:22:54;26.00;;;14.33;;
9094;SDS011;4583;49.796;9.902;2022-12-11T07:32:56;26.37;;;14.40;;
9094;SDS011;4583;49.796;9.902;2022-12-11T07:42:58;23.27;;;12.87;;
9094;SDS011;4583;49.796;9.902;2022-12-11T07:53:00;21.30;;;12.20;;
9094;SDS011;4583;49.796;9.902;2022-12-11T08:03:02;19.87;;;11.87;;
9094;SDS011;4583;49.796;9.902;2022-12-11T08:13:05;19.10;;;10.73;;
9094;SDS011;4583;49.796;9.902;2022-12-11T08:23:07;19.00;;;11.67;;
9094;SDS011;4583;49.796;9.902;2022-12-11T08:33:08;19.53;;;11.17;;
9094;SDS011;4583;49.796;9.902;2022-12-11T08:43:11;22.07;;;11.30;;
9094;SDS011;4583;49.796;9.902;2022-12-11T08:53:12;18.97;;;10.93;;
9094;SDS011;4583;49.796;9.902;2022-12-11T09:03:17;18.80;;;10.97;;
9094;SDS011;4583;49.796;9.902;2022-12-11T09:13:19;18.17;;;10.97;;
9094;SDS011;4583;49.796;9.902;2022-12-11T09:23:21;17.17;;;9.97;;
9094;SDS011;4583;49.796;9.902;2022-12-11T09:33:23;19.47;;;11.00;;
9094;SDS011;4583;49.796;9.902;2022-12-11T09:53:42;16.90;;;9.80;;
9094;SDS011;4583;49.796;9.902;2022-12-11T10:24:33;18.93;;;10.63;;
9094;SDS011;4583;49.796;9.902;2022-12-11T10:35:01;17.27;;;9.67;;
9094;SDS011;4583;49.796;9.902;2022-12-11T10:45:06;15.30;;;9.70;;
9094;SDS011;4583;49.796;9.902;2022-12-11T11:05:29;12.00;;;7.37;;
9094;SDS011;4583;49.796;9.902;2022-12-11T11:15:35;13.97;;;8.53;;
9094;SDS011;4583;49.796;9.902;2022-12-11T11:25:37;13.93;;;7.57;;
9094;SDS011;4583;49.796;9.902;2022-12-11T11:35:49;12.50;;;7.73;;
9094;SDS011;4583;49.796;9.902;2022-12-11T11:46:01;14.77;;;9.13;;
9094;SDS011;4583;49.796;9.902;2022-12-11T11:56:21;14.57;;;8.80;;
9094;SDS011;4583;49.796;9.902;2022-12-11T12:06:44;16.60;;;10.13;;
9094;SDS011;4583;49.796;9.902;2022-12-11T12:27:11;18.27;;;10.53;;
9094;SDS011;4583;49.796;9.902;2022-12-11T12:48:05;16.07;;;9.03;;
9094;SDS011;4583;49.796;9.902;2022-12-11T12:58:23;14.53;;;8.67;;
9094;SDS011;4583;49.796;9.902;2022-12-11T13:08:30;14.27;;;9.00;;
9094;SDS011;4583;49.796;9.902;2022-12-11T13:18:38;15.87;;;8.97;;
9094;SDS011;4583;49.796;9.902;2022-12-11T13:38:49;18.20;;;9.83;;
9094;SDS011;4583;49.796;9.902;2022-12-11T13:51:21;22.50;;;10.50;;
9094;SDS011;4583;49.796;9.902;2022-12-11T14:01:28;19.20;;;10.33;;
9094;SDS011;4583;49.796;9.902;2022-12-11T14:11:33;21.13;;;11.80;;
9094;SDS011;4583;49.796;9.902;2022-12-11T14:21:37;25.77;;;15.37;;
9094;SDS011;4583;49.796;9.902;2022-12-11T14:31:40;25.33;;;14.13;;
9094;SDS011;4583;49.796;9.902;2022-12-11T14:52:05;26.33;;;13.17;;
9094;SDS011;4583;49.796;9.902;2022-12-11T15:02:26;22.93;;;12.67;;
9094;SDS011;4583;49.796;9.902;2022-12-11T15:12:28;24.63;;;12.70;;
9094;SDS011;4583;49.796;9.902;2022-12-11T15:22:30;24.07;;;12.57;;
9094;SDS011;4583;49.796;9.902;2022-12-11T15:32:32;24.47;;;11.80;;
9094;SDS011;4583;49.796;9.902;2022-12-11T15:42:35;20.60;;;11.57;;
9094;SDS011;4583;49.796;9.902;2022-12-11T15:52:39;23.90;;;12.07;;
9094;SDS011;4583;49.796;9.902;2022-12-11T16:02:41;22.00;;;11.90;;
9094;SDS011;4583;49.796;9.902;2022-12-11T16:12:43;25.67;;;12.13;;
9094;SDS011;4583;49.796;9.902;2022-12-11T16:22:45;19.07;;;10.73;;
9094;SDS011;4583;49.796;9.902;2022-12-11T16:32:47;20.23;;;10.83;;
9094;SDS011;4583;49.796;9.902;2022-12-11T16:42:49;19.10;;;10.67;;
9094;SDS011;4583;49.796;9.902;2022-12-11T16:52:51;20.27;;;10.77;;
9094;SDS011;4583;49.796;9.902;2022-12-11T17:02:52;20.83;;;10.47;;
9094;SDS011;4583;49.796;9.902;2022-12-11T17:12:54;17.60;;;10.10;;
9094;SDS011;4583;49.796;9.902;2022-12-11T17:22:56;22.93;;;11.07;;
9094;SDS011;4583;49.796;9.902;2022-12-11T17:32:58;20.53;;;10.63;;
9094;SDS011;4583;49.796;9.902;2022-12-11T17:43:00;19.53;;;10.40;;
9094;SDS011;4583;49.796;9.902;2022-12-11T17:53:03;17.47;;;10.10;;
9094;SDS011;4583;49.796;9.902;2022-12-11T18:03:05;19.33;;;9.70;;
9094;SDS011;4583;49.796;9.902;2022-12-11T18:13:07;15.23;;;8.80;;
9094;SDS011;4583;49.796;9.902;2022-12-11T18:23:09;17.33;;;9.63;;
9094;SDS011;4583;49.796;9.902;2022-12-11T18:33:11;21.40;;;11.10;;
9094;SDS011;4583;49.796;9.902;2022-12-11T18:43:13;20.60;;;11.50;;
9094;SDS011;4583;49.796;9.902;2022-12-11T18:53:16;21.37;;;11.83;;
9094;SDS011;4583;49.796;9.902;2022-12-11T19:03:18;25.33;;;12.17;;
9094;SDS011;4583;49.796;9.902;2022-12-11T19:13:20;22.07;;;11.30;;
9094;SDS011;4583;49.796;9.902;2022-12-11T19:23:22;19.43;;;10.57;;
9094;SDS011;4583;49.796;9.902;2022-12-11T19:33:23;25.13;;;12.17;;
9094;SDS011;4583;49.796;9.902;2022-12-11T19:43:25;19.90;;;10.57;;
9094;SDS011;4583;49.796;9.902;2022-12-11T19:53:27;19.00;;;10.67;;
9094;SDS011;4583;49.796;9.902;2022-12-11T20:03:30;27.80;;;11.77;;
9094;SDS011;4583;49.796;9.902;2022-12-11T20:13:31;18.43;;;10.00;;
9094;SDS011;4583;49.796;9.902;2022-12-11T20:23:34;19.93;;;11.30;;
9094;SDS011;4583;49.796;9.902;2022-12-11T20:33:36;19.13;;;10.93;;
9094;SDS011;4583;49.796;9.902;2022-12-11T20:43:38;18.70;;;10.83;;
9094;SDS011;4583;49.796;9.902;2022-12-11T20:53:41;19.03;;;9.87;;
9094;SDS011;4583;49.796;9.902;2022-12-11T21:03:43;18.37;;;9.50;;
9094;SDS011;4583;49.796;9.902;2022-12-11T21:13:45;21.33;;;11.17;;
9094;SDS011;4583;49.796;9.902;2022-12-11T21:23:47;18.63;;;9.27;;
9094;SDS011;4583;49.796;9.902;2022-12-11T21:33:49;24.23;;;11.20;;
9094;SDS011;4583;49.796;9.902;2022-12-11T21:43:52;20.63;;;10.83;;
9094;SDS011;4583;49.796;9.902;2022-12-11T21:54:16;18.50;;;10.57;;
9094;SDS011;4583;49.796;9.902;2022-12-11T22:04:18;19.03;;;10.27;;
9094;SDS011;4583;49.796;9.902;2022-12-11T22:14:20;18.80;;;13.15;;
9094;SDS011;4583;49.796;9.902;2022-12-11T22:24:22;19.13;;;10.23;;
9094;SDS011;4583;49.796;9.902;2022-12-11T22:34:24;18.37;;;9.77;;
9094;SDS011;4583;49.796;9.902;2022-12-11T22:44:25;16.63;;;8.93;;
9094;SDS011;4583;49.796;9.902;2022-12-11T22:54:27;18.43;;;9.20;;
9094;SDS011;4583;49.796;9.902;2022-12-11T23:04:29;20.03;;;10.37;;
9094;SDS011;4583;49.796;9.902;2022-12-11T23:14:30;23.00;;;10.77;;
9094;SDS011;4583;49.796;9.902;2022-12-11T23:24:32;20.93;;;11.67;;
9094;SDS011;4583;49.796;9.902;2022-12-11T23:34:34;21.07;;;10.67;;
9094;SDS011;4583;49.796;9.902;2022-12-11T23:44:36;20.77;;;11.33;;
9094;SDS011;4583;49.796;9.902;2022-12-11T23:54:38;25.07;;;13.73;;
